sensor_id;sensor_type;location;lat;lon;timestamp;P1;durP1;ratioP1;P2;durP2;ratioP2
19384;SDS011;9828;54.122;17.974;2022-11-20T00:04:01;54.40;;;27.97;;
19384;SDS011;9828;54.122;17.974;2022-11-20T00:09:22;42.77;;;25.00;;
19384;SDS011;9828;54.122;17.974;2022-11-20T00:14:43;35.63;;;21.50;;
19384;SDS011;9828;54.122;17.974;2022-11-20T00:20:04;38.37;;;21.73;;
19384;SDS011;9828;54.122;17.974;2022-11-20T00:25:26;40.33;;;23.00;;
19384;SDS011;9828;54.122;17.974;2022-11-20T00:30:47;35.27;;;21.57;;
19384;SDS011;9828;54.122;17.974;2022-11-20T00:36:10;53.33;;;29.23;;
19384;SDS011;9828;54.122;17.974;2022-11-20T00:41:33;51.37;;;29.07;;
19384;SDS011;9828;54.122;17.974;2022-11-20T00:46:54;56.70;;;28.33;;
19384;SDS011;9828;54.122;17.974;2022-11-20T00:52:16;60.30;;;30.60;;
19384;SDS011;9828;54.122;17.974;2022-11-20T00:57:37;46.17;;;25.20;;
19384;SDS011;9828;54.122;17.974;2022-11-20T01:02:58;43.00;;;25.40;;
19384;SDS011;9828;54.122;17.974;2022-11-20T01:08:19;44.80;;;26.33;;
19384;SDS011;9828;54.122;17.974;2022-11-20T01:13:40;41.97;;;23.23;;
19384;SDS011;9828;54.122;17.974;2022-11-20T01:19:04;36.33;;;22.20;;
19384;SDS011;9828;54.122;17.974;2022-11-20T01:24:26;32.83;;;19.20;;
19384;SDS011;9828;54.122;17.974;2022-11-20T01:29:48;34.87;;;20.70;;
19384;SDS011;9828;54.122;17.974;2022-11-20T01:35:09;29.97;;;20.10;;
19384;SDS011;9828;54.122;17.974;2022-11-20T01:40:30;31.23;;;18.63;;
19384;SDS011;9828;54.122;17.974;2022-11-20T01:45:59;25.23;;;16.73;;
19384;SDS011;9828;54.122;17.974;2022-11-20T01:51:41;28.57;;;18.40;;
19384;SDS011;9828;54.122;17.974;2022-11-20T01:57:06;24.27;;;16.33;;
19384;SDS011;9828;54.122;17.974;2022-11-20T02:02:30;30.20;;;17.37;;
19384;SDS011;9828;54.122;17.974;2022-11-20T02:07:51;34.37;;;19.73;;
19384;SDS011;9828;54.122;17.974;2022-11-20T02:13:15;30.77;;;18.27;;
19384;SDS011;9828;54.122;17.974;2022-11-20T02:18:56;26.33;;;16.73;;
19384;SDS011;9828;54.122;17.974;2022-11-20T02:24:19;35.70;;;19.40;;
19384;SDS011;9828;54.122;17.974;2022-11-20T02:40:54;36.70;;;23.00;;
19384;SDS011;9828;54.122;17.974;2022-11-20T02:46:15;36.53;;;20.80;;
19384;SDS011;9828;54.122;17.974;2022-11-20T02:51:36;31.83;;;18.10;;
19384;SDS011;9828;54.122;17.974;2022-11-20T02:56:58;29.33;;;18.07;;
19384;SDS011;9828;54.122;17.974;2022-11-20T03:02:19;32.27;;;19.50;;
19384;SDS011;9828;54.122;17.974;2022-11-20T03:07:41;38.37;;;22.83;;
19384;SDS011;9828;54.122;17.974;2022-11-20T03:13:03;41.87;;;24.87;;
19384;SDS011;9828;54.122;17.974;2022-11-20T03:18:27;40.30;;;23.93;;
19384;SDS011;9828;54.122;17.974;2022-11-20T03:23:49;42.70;;;26.10;;
19384;SDS011;9828;54.122;17.974;2022-11-20T03:29:10;52.07;;;26.97;;
19384;SDS011;9828;54.122;17.974;2022-11-20T03:34:31;49.67;;;28.13;;
19384;SDS011;9828;54.122;17.974;2022-11-20T03:39:52;49.10;;;27.40;;
19384;SDS011;9828;54.122;17.974;2022-11-20T03:45:14;46.40;;;27.20;;
19384;SDS011;9828;54.122;17.974;2022-11-20T03:50:37;52.57;;;28.23;;
19384;SDS011;9828;54.122;17.974;2022-11-20T03:55:58;48.77;;;26.40;;
19384;SDS011;9828;54.122;17.974;2022-11-20T04:01:24;50.63;;;28.23;;
19384;SDS011;9828;54.122;17.974;2022-11-20T04:06:47;42.87;;;25.47;;
19384;SDS011;9828;54.122;17.974;2022-11-20T04:12:08;50.07;;;27.57;;
19384;SDS011;9828;54.122;17.974;2022-11-20T04:17:29;49.33;;;27.40;;
19384;SDS011;9828;54.122;17.974;2022-11-20T04:22:52;45.93;;;26.20;;
19384;SDS011;9828;54.122;17.974;2022-11-20T04:28:14;50.10;;;28.80;;
19384;SDS011;9828;54.122;17.974;2022-11-20T04:33:36;49.87;;;27.90;;
19384;SDS011;9828;54.122;17.974;2022-11-20T04:38:58;53.23;;;29.03;;
19384;SDS011;9828;54.122;17.974;2022-11-20T04:44:22;51.00;;;28.27;;
19384;SDS011;9828;54.122;17.974;2022-11-20T04:49:43;51.90;;;29.33;;
19384;SDS011;9828;54.122;17.974;2022-11-20T04:55:05;50.80;;;26.97;;
19384;SDS011;9828;54.122;17.974;2022-11-20T05:00:26;56.47;;;29.47;;
19384;SDS011;9828;54.122;17.974;2022-11-20T05:05:47;54.33;;;31.00;;
19384;SDS011;9828;54.122;17.974;2022-11-20T05:11:10;49.43;;;27.40;;
19384;SDS011;9828;54.122;17.974;2022-11-20T05:16:33;43.77;;;25.63;;
19384;SDS011;9828;54.122;17.974;2022-11-20T05:21:56;49.00;;;26.03;;
19384;SDS011;9828;54.122;17.974;2022-11-20T05:27:17;48.23;;;24.97;;
19384;SDS011;9828;54.122;17.974;2022-11-20T05:32:38;54.90;;;29.17;;
19384;SDS011;9828;54.122;17.974;2022-11-20T05:37:59;58.73;;;28.40;;
19384;SDS011;9828;54.122;17.974;2022-11-20T05:43:21;51.37;;;28.10;;
19384;SDS011;9828;54.122;17.974;2022-11-20T05:48:42;55.87;;;28.30;;
19384;SDS011;9828;54.122;17.974;2022-11-20T05:54:04;63.40;;;33.57;;
19384;SDS011;9828;54.122;17.974;2022-11-20T05:59:26;55.73;;;29.17;;
19384;SDS011;9828;54.122;17.974;2022-11-20T06:04:47;59.10;;;28.10;;
19384;SDS011;9828;54.122;17.974;2022-11-20T06:10:08;56.70;;;27.80;;
19384;SDS011;9828;54.122;17.974;2022-11-20T06:15:30;56.17;;;29.00;;
19384;SDS011;9828;54.122;17.974;2022-11-20T06:20:58;50.33;;;27.30;;
19384;SDS011;9828;54.122;17.974;2022-11-20T06:26:21;55.87;;;26.93;;
19384;SDS011;9828;54.122;17.974;2022-11-20T06:31:44;83.47;;;40.63;;
19384;SDS011;9828;54.122;17.974;2022-11-20T06:37:05;81.40;;;40.00;;
19384;SDS011;9828;54.122;17.974;2022-11-20T06:42:26;95.27;;;48.73;;
19384;SDS011;9828;54.122;17.974;2022-11-20T06:47:47;77.40;;;41.13;;
19384;SDS011;9828;54.122;17.974;2022-11-20T06:53:09;75.47;;;37.40;;
19384;SDS011;9828;54.122;17.974;2022-11-20T06:58:31;79.27;;;40.90;;
19384;SDS011;9828;54.122;17.974;2022-11-20T07:03:53;153.10;;;57.87;;
19384;SDS011;9828;54.122;17.974;2022-11-20T07:09:14;101.53;;;45.67;;
19384;SDS011;9828;54.122;17.974;2022-11-20T07:14:36;111.77;;;48.87;;
19384;SDS011;9828;54.122;17.974;2022-11-20T07:19:58;96.97;;;42.53;;
19384;SDS011;9828;54.122;17.974;2022-11-20T07:25:19;102.13;;;41.73;;
19384;SDS011;9828;54.122;17.974;2022-11-20T07:30:40;98.40;;;42.67;;
19384;SDS011;9828;54.122;17.974;2022-11-20T07:36:01;94.27;;;35.53;;
19384;SDS011;9828;54.122;17.974;2022-11-20T07:41:23;92.17;;;39.93;;
19384;SDS011;9828;54.122;17.974;2022-11-20T07:46:45;91.80;;;44.27;;
19384;SDS011;9828;54.122;17.974;2022-11-20T07:52:06;101.83;;;57.33;;
19384;SDS011;9828;54.122;17.974;2022-11-20T07:57:28;258.33;;;86.07;;
19384;SDS011;9828;54.122;17.974;2022-11-20T08:02:49;289.47;;;103.33;;
19384;SDS011;9828;54.122;17.974;2022-11-20T08:08:10;232.80;;;85.50;;
19384;SDS011;9828;54.122;17.974;2022-11-20T08:13:31;157.70;;;72.17;;
19384;SDS011;9828;54.122;17.974;2022-11-20T08:19:15;123.27;;;62.63;;
19384;SDS011;9828;54.122;17.974;2022-11-20T08:24:37;101.37;;;54.67;;
19384;SDS011;9828;54.122;17.974;2022-11-20T08:29:58;87.03;;;43.50;;
19384;SDS011;9828;54.122;17.974;2022-11-20T08:35:20;75.40;;;37.43;;
19384;SDS011;9828;54.122;17.974;2022-11-20T08:40:42;78.90;;;38.00;;
19384;SDS011;9828;54.122;17.974;2022-11-20T08:46:24;87.40;;;40.10;;
19384;SDS011;9828;54.122;17.974;2022-11-20T08:51:46;105.07;;;46.33;;
19384;SDS011;9828;54.122;17.974;2022-11-20T08:57:12;101.00;;;45.93;;
19384;SDS011;9828;54.122;17.974;2022-11-20T09:02:33;77.60;;;37.13;;
19384;SDS011;9828;54.122;17.974;2022-11-20T09:07:58;96.90;;;42.37;;
19384;SDS011;9828;54.122;17.974;2022-11-20T09:13:20;92.17;;;44.57;;
19384;SDS011;9828;54.122;17.974;2022-11-20T09:18:42;936.40;;;518.80;;
19384;SDS011;9828;54.122;17.974;2022-11-20T09:24:04;1058.90;;;623.77;;
19384;SDS011;9828;54.122;17.974;2022-11-20T09:29:26;236.30;;;129.33;;
19384;SDS011;9828;54.122;17.974;2022-11-20T09:34:47;308.77;;;173.43;;
19384;SDS011;9828;54.122;17.974;2022-11-20T09:40:16;226.83;;;129.73;;
19384;SDS011;9828;54.122;17.974;2022-11-20T09:57:37;112.57;;;57.40;;
19384;SDS011;9828;54.122;17.974;2022-11-20T10:03:01;103.23;;;44.03;;
19384;SDS011;9828;54.122;17.974;2022-11-20T10:08:32;72.10;;;34.93;;
19384;SDS011;9828;54.122;17.974;2022-11-20T10:26:28;66.77;;;34.57;;
19384;SDS011;9828;54.122;17.974;2022-11-20T10:32:24;135.07;;;59.00;;
19384;SDS011;9828;54.122;17.974;2022-11-20T10:37:41;151.87;;;98.63;;
19384;SDS011;9828;54.122;17.974;2022-11-20T10:43:10;58.23;;;32.60;;
19384;SDS011;9828;54.122;17.974;2022-11-20T10:48:48;54.23;;;28.50;;
19384;SDS011;9828;54.122;17.974;2022-11-20T10:59:55;59.47;;;31.57;;
19384;SDS011;9828;54.122;17.974;2022-11-20T11:05:25;55.13;;;28.37;;
19384;SDS011;9828;54.122;17.974;2022-11-20T11:11:15;52.23;;;26.67;;
19384;SDS011;9828;54.122;17.974;2022-11-20T11:17:17;60.83;;;31.23;;
19384;SDS011;9828;54.122;17.974;2022-11-20T11:22:45;44.63;;;25.63;;
19384;SDS011;9828;54.122;17.974;2022-11-20T11:33:37;54.30;;;28.53;;
19384;SDS011;9828;54.122;17.974;2022-11-20T11:38:59;54.90;;;29.33;;
19384;SDS011;9828;54.122;17.974;2022-11-20T11:56:22;40.70;;;23.30;;
19384;SDS011;9828;54.122;17.974;2022-11-20T12:01:50;53.50;;;29.03;;
19384;SDS011;9828;54.122;17.974;2022-11-20T12:07:15;58.93;;;33.07;;
19384;SDS011;9828;54.122;17.974;2022-11-20T12:18:40;45.17;;;27.10;;
19384;SDS011;9828;54.122;17.974;2022-11-20T12:24:23;48.97;;;26.97;;
19384;SDS011;9828;54.122;17.974;2022-11-20T12:35:42;40.97;;;23.43;;
19384;SDS011;9828;54.122;17.974;2022-11-20T12:59:17;40.93;;;24.50;;
19384;SDS011;9828;54.122;17.974;2022-11-20T13:16:42;42.20;;;24.30;;
19384;SDS011;9828;54.122;17.974;2022-11-20T13:22:00;53.20;;;30.07;;
19384;SDS011;9828;54.122;17.974;2022-11-20T13:27:22;44.63;;;24.90;;
19384;SDS011;9828;54.122;17.974;2022-11-20T13:32:51;49.73;;;28.07;;
19384;SDS011;9828;54.122;17.974;2022-11-20T13:38:13;50.00;;;28.40;;
19384;SDS011;9828;54.122;17.974;2022-11-20T13:43:37;52.13;;;27.77;;
19384;SDS011;9828;54.122;17.974;2022-11-20T13:49:05;55.33;;;31.93;;
19384;SDS011;9828;54.122;17.974;2022-11-20T14:00:13;47.70;;;27.40;;
19384;SDS011;9828;54.122;17.974;2022-11-20T14:05:38;43.17;;;24.83;;
19384;SDS011;9828;54.122;17.974;2022-11-20T14:11:51;38.10;;;22.33;;
19384;SDS011;9828;54.122;17.974;2022-11-20T14:17:07;32.13;;;20.43;;
19384;SDS011;9828;54.122;17.974;2022-11-20T14:22:37;39.20;;;21.20;;
19384;SDS011;9828;54.122;17.974;2022-11-20T14:27:59;32.43;;;19.90;;
19384;SDS011;9828;54.122;17.974;2022-11-20T14:33:22;31.93;;;19.63;;
19384;SDS011;9828;54.122;17.974;2022-11-20T14:38:45;29.40;;;18.63;;
19384;SDS011;9828;54.122;17.974;2022-11-20T14:44:08;26.97;;;16.90;;
19384;SDS011;9828;54.122;17.974;2022-11-20T14:49:30;27.70;;;17.47;;
19384;SDS011;9828;54.122;17.974;2022-11-20T14:54:53;34.73;;;22.47;;
19384;SDS011;9828;54.122;17.974;2022-11-20T15:05:47;38.90;;;22.93;;
19384;SDS011;9828;54.122;17.974;2022-11-20T15:11:17;38.33;;;22.40;;
19384;SDS011;9828;54.122;17.974;2022-11-20T15:16:40;30.73;;;19.00;;
19384;SDS011;9828;54.122;17.974;2022-11-20T15:22:02;35.17;;;23.27;;
19384;SDS011;9828;54.122;17.974;2022-11-20T15:27:24;31.13;;;19.97;;
19384;SDS011;9828;54.122;17.974;2022-11-20T15:32:46;35.23;;;23.47;;
19384;SDS011;9828;54.122;17.974;2022-11-20T15:38:07;45.87;;;26.60;;
19384;SDS011;9828;54.122;17.974;2022-11-20T15:43:28;46.87;;;26.47;;
19384;SDS011;9828;54.122;17.974;2022-11-20T15:48:51;49.33;;;26.43;;
19384;SDS011;9828;54.122;17.974;2022-11-20T15:54:18;48.13;;;25.03;;
19384;SDS011;9828;54.122;17.974;2022-11-20T15:59:41;70.57;;;28.47;;
19384;SDS011;9828;54.122;17.974;2022-11-20T16:05:03;76.50;;;33.33;;
19384;SDS011;9828;54.122;17.974;2022-11-20T16:10:24;64.33;;;32.50;;
19384;SDS011;9828;54.122;17.974;2022-11-20T16:15:46;58.10;;;29.23;;
19384;SDS011;9828;54.122;17.974;2022-11-20T16:21:12;71.23;;;33.93;;
19384;SDS011;9828;54.122;17.974;2022-11-20T16:26:34;58.20;;;29.07;;
19384;SDS011;9828;54.122;17.974;2022-11-20T16:31:56;72.00;;;37.23;;
19384;SDS011;9828;54.122;17.974;2022-11-20T16:37:17;57.80;;;30.10;;
19384;SDS011;9828;54.122;17.974;2022-11-20T16:42:38;52.03;;;29.60;;
19384;SDS011;9828;54.122;17.974;2022-11-20T16:47:59;76.70;;;35.37;;
19384;SDS011;9828;54.122;17.974;2022-11-20T16:53:21;134.63;;;56.43;;
19384;SDS011;9828;54.122;17.974;2022-11-20T16:58:46;80.67;;;38.27;;
19384;SDS011;9828;54.122;17.974;2022-11-20T17:04:09;52.00;;;32.83;;
19384;SDS011;9828;54.122;17.974;2022-11-20T17:09:30;61.33;;;33.67;;
19384;SDS011;9828;54.122;17.974;2022-11-20T17:14:51;63.60;;;36.80;;
19384;SDS011;9828;54.122;17.974;2022-11-20T17:20:13;62.37;;;37.60;;
19384;SDS011;9828;54.122;17.974;2022-11-20T17:25:33;87.47;;;50.13;;
19384;SDS011;9828;54.122;17.974;2022-11-20T17:31:02;72.17;;;39.13;;
19384;SDS011;9828;54.122;17.974;2022-11-20T17:36:25;62.73;;;35.27;;
19384;SDS011;9828;54.122;17.974;2022-11-20T17:41:47;62.73;;;35.47;;
19384;SDS011;9828;54.122;17.974;2022-11-20T17:47:28;66.23;;;41.80;;
19384;SDS011;9828;54.122;17.974;2022-11-20T17:52:49;72.03;;;42.30;;
19384;SDS011;9828;54.122;17.974;2022-11-20T17:58:10;72.63;;;42.23;;
19384;SDS011;9828;54.122;17.974;2022-11-20T18:03:31;65.63;;;37.93;;
19384;SDS011;9828;54.122;17.974;2022-11-20T18:08:54;60.70;;;35.23;;
19384;SDS011;9828;54.122;17.974;2022-11-20T18:14:22;62.20;;;37.27;;
19384;SDS011;9828;54.122;17.974;2022-11-20T18:19:48;53.23;;;32.80;;
19384;SDS011;9828;54.122;17.974;2022-11-20T18:25:26;62.53;;;38.77;;
19384;SDS011;9828;54.122;17.974;2022-11-20T18:30:47;57.07;;;34.00;;
19384;SDS011;9828;54.122;17.974;2022-11-20T18:36:09;71.97;;;39.07;;
19384;SDS011;9828;54.122;17.974;2022-11-20T18:41:31;71.30;;;39.00;;
19384;SDS011;9828;54.122;17.974;2022-11-20T18:47:12;68.07;;;35.77;;
19384;SDS011;9828;54.122;17.974;2022-11-20T18:52:43;51.50;;;30.47;;
19384;SDS011;9828;54.122;17.974;2022-11-20T18:58:06;58.73;;;35.00;;
19384;SDS011;9828;54.122;17.974;2022-11-20T19:03:27;48.10;;;29.97;;
19384;SDS011;9828;54.122;17.974;2022-11-20T19:08:48;50.30;;;29.67;;
19384;SDS011;9828;54.122;17.974;2022-11-20T19:14:10;42.47;;;26.53;;
19384;SDS011;9828;54.122;17.974;2022-11-20T19:19:32;45.97;;;28.97;;
19384;SDS011;9828;54.122;17.974;2022-11-20T19:24:53;45.47;;;28.40;;
19384;SDS011;9828;54.122;17.974;2022-11-20T19:30:15;45.73;;;26.80;;
19384;SDS011;9828;54.122;17.974;2022-11-20T19:35:37;60.13;;;32.83;;
19384;SDS011;9828;54.122;17.974;2022-11-20T19:40:58;68.63;;;35.33;;
19384;SDS011;9828;54.122;17.974;2022-11-20T19:46:19;62.93;;;32.03;;
19384;SDS011;9828;54.122;17.974;2022-11-20T19:51:44;50.63;;;28.27;;
19384;SDS011;9828;54.122;17.974;2022-11-20T19:57:07;46.33;;;26.47;;
19384;SDS011;9828;54.122;17.974;2022-11-20T20:02:29;44.63;;;24.77;;
19384;SDS011;9828;54.122;17.974;2022-11-20T20:07:50;45.30;;;25.87;;
19384;SDS011;9828;54.122;17.974;2022-11-20T20:13:11;56.73;;;31.33;;
19384;SDS011;9828;54.122;17.974;2022-11-20T20:18:32;51.30;;;29.87;;
19384;SDS011;9828;54.122;17.974;2022-11-20T20:23:54;58.87;;;31.70;;
19384;SDS011;9828;54.122;17.974;2022-11-20T20:29:16;50.23;;;28.40;;
19384;SDS011;9828;54.122;17.974;2022-11-20T20:34:39;43.10;;;25.50;;
19384;SDS011;9828;54.122;17.974;2022-11-20T20:40:00;43.93;;;25.50;;
19384;SDS011;9828;54.122;17.974;2022-11-20T20:45:22;54.73;;;29.63;;
19384;SDS011;9828;54.122;17.974;2022-11-20T20:50:51;45.50;;;25.30;;
19384;SDS011;9828;54.122;17.974;2022-11-20T20:56:16;47.17;;;25.93;;
19384;SDS011;9828;54.122;17.974;2022-11-20T21:01:37;64.23;;;31.23;;
19384;SDS011;9828;54.122;17.974;2022-11-20T21:06:58;49.90;;;26.13;;
19384;SDS011;9828;54.122;17.974;2022-11-20T21:12:19;41.67;;;24.50;;
19384;SDS011;9828;54.122;17.974;2022-11-20T21:17:40;56.57;;;30.93;;
19384;SDS011;9828;54.122;17.974;2022-11-20T21:23:07;50.80;;;27.33;;
19384;SDS011;9828;54.122;17.974;2022-11-20T21:28:32;41.20;;;23.00;;
19384;SDS011;9828;54.122;17.974;2022-11-20T21:33:55;46.73;;;26.73;;
19384;SDS011;9828;54.122;17.974;2022-11-20T21:39:17;55.63;;;31.93;;
19384;SDS011;9828;54.122;17.974;2022-11-20T21:44:40;66.80;;;38.43;;
19384;SDS011;9828;54.122;17.974;2022-11-20T21:50:02;74.63;;;42.17;;
19384;SDS011;9828;54.122;17.974;2022-11-20T21:55:23;71.97;;;38.57;;
19384;SDS011;9828;54.122;17.974;2022-11-20T22:00:44;48.60;;;25.10;;
19384;SDS011;9828;54.122;17.974;2022-11-20T22:06:06;50.27;;;28.27;;
19384;SDS011;9828;54.122;17.974;2022-11-20T22:11:29;44.87;;;25.50;;
19384;SDS011;9828;54.122;17.974;2022-11-20T22:16:51;37.30;;;22.83;;
19384;SDS011;9828;54.122;17.974;2022-11-20T22:22:12;34.57;;;21.40;;
19384;SDS011;9828;54.122;17.974;2022-11-20T22:27:34;36.23;;;22.27;;
19384;SDS011;9828;54.122;17.974;2022-11-20T22:32:55;45.63;;;25.73;;
19384;SDS011;9828;54.122;17.974;2022-11-20T22:38:16;56.07;;;31.57;;
19384;SDS011;9828;54.122;17.974;2022-11-20T22:43:38;46.97;;;24.33;;
19384;SDS011;9828;54.122;17.974;2022-11-20T22:49:00;46.37;;;25.60;;
19384;SDS011;9828;54.122;17.974;2022-11-20T22:54:24;33.63;;;21.23;;
19384;SDS011;9828;54.122;17.974;2022-11-20T22:59:46;38.97;;;21.73;;
19384;SDS011;9828;54.122;17.974;2022-11-20T23:05:11;34.60;;;20.93;;
19384;SDS011;9828;54.122;17.974;2022-11-20T23:10:32;38.23;;;21.60;;
19384;SDS011;9828;54.122;17.974;2022-11-20T23:15:54;37.00;;;20.83;;
19384;SDS011;9828;54.122;17.974;2022-11-20T23:21:20;47.03;;;26.00;;
19384;SDS011;9828;54.122;17.974;2022-11-20T23:26:41;36.10;;;21.60;;
19384;SDS011;9828;54.122;17.974;2022-11-20T23:32:04;33.07;;;19.87;;
19384;SDS011;9828;54.122;17.974;2022-11-20T23:37:25;35.53;;;20.53;;
19384;SDS011;9828;54.122;17.974;2022-11-20T23:42:47;36.07;;;21.73;;
19384;SDS011;9828;54.122;17.974;2022-11-20T23:48:28;33.47;;;19.50;;
19384;SDS011;9828;54.122;17.974;2022-11-20T23:53:51;36.27;;;22.20;;
19384;SDS011;9828;54.122;17.974;2022-11-20T23:59:12;38.27;;;23.47;;
